sensor_id;sensor_type;location;lat;lon;timestamp;temperature;humidity
65472;DHT22;52068;50.710;14.492;2022-10-16T00:00:26;22.62;57.76
65472;DHT22;52068;50.710;14.492;2022-10-16T00:02:51;22.60;57.76
65472;DHT22;52068;50.710;14.492;2022-10-16T00:05:16;22.63;57.79
65472;DHT22;52068;50.710;14.492;2022-10-16T00:07:41;22.63;57.83
65472;DHT22;52068;50.710;14.492;2022-10-16T00:10:07;22.63;57.79
65472;DHT22;52068;50.710;14.492;2022-10-16T00:12:32;22.63;57.80
65472;DHT22;52068;50.710;14.492;2022-10-16T00:14:57;22.63;57.79
65472;DHT22;52068;50.710;14.492;2022-10-16T00:17:23;22.66;57.84
65472;DHT22;52068;50.710;14.492;2022-10-16T00:19:48;22.63;57.76
65472;DHT22;52068;50.710;14.492;2022-10-16T00:22:13;22.63;57.86
65472;DHT22;52068;50.710;14.492;2022-10-16T00:24:39;22.66;57.88
65472;DHT22;52068;50.710;14.492;2022-10-16T00:27:04;22.64;57.85
65472;DHT22;52068;50.710;14.492;2022-10-16T00:29:29;22.64;58.01
65472;DHT22;52068;50.710;14.492;2022-10-16T00:31:55;22.63;58.04
65472;DHT22;52068;50.710;14.492;2022-10-16T00:34:20;22.67;57.95
65472;DHT22;52068;50.710;14.492;2022-10-16T00:36:45;22.66;57.94
65472;DHT22;52068;50.710;14.492;2022-10-16T00:39:10;22.66;57.87
65472;DHT22;52068;50.710;14.492;2022-10-16T00:41:36;22.67;57.90
65472;DHT22;52068;50.710;14.492;2022-10-16T00:44:40;22.67;58.00
65472;DHT22;52068;50.710;14.492;2022-10-16T00:46:49;22.67;57.96
65472;DHT22;52068;50.710;14.492;2022-10-16T00:49:15;22.69;57.94
65472;DHT22;52068;50.710;14.492;2022-10-16T00:51:42;22.66;57.87
65472;DHT22;52068;50.710;14.492;2022-10-16T00:54:09;22.66;57.87
65472;DHT22;52068;50.710;14.492;2022-10-16T00:56:35;22.67;57.83
65472;DHT22;52068;50.710;14.492;2022-10-16T00:59:01;22.67;57.79
65472;DHT22;52068;50.710;14.492;2022-10-16T01:01:28;22.67;57.76
65472;DHT22;52068;50.710;14.492;2022-10-16T01:03:53;22.67;57.73
65472;DHT22;52068;50.710;14.492;2022-10-16T01:06:28;22.67;57.69
65472;DHT22;52068;50.710;14.492;2022-10-16T01:09:11;22.69;57.74
65472;DHT22;52068;50.710;14.492;2022-10-16T01:12:12;22.70;57.75
65472;DHT22;52068;50.710;14.492;2022-10-16T01:17:15;22.69;57.64
65472;DHT22;52068;50.710;14.492;2022-10-16T01:19:50;22.67;57.67
65472;DHT22;52068;50.710;14.492;2022-10-16T01:22:21;22.69;57.66
65472;DHT22;52068;50.710;14.492;2022-10-16T01:24:48;22.67;57.63
65472;DHT22;52068;50.710;14.492;2022-10-16T01:27:15;22.69;57.67
65472;DHT22;52068;50.710;14.492;2022-10-16T01:29:50;22.67;57.62
65472;DHT22;52068;50.710;14.492;2022-10-16T01:35:05;22.69;57.63
65472;DHT22;52068;50.710;14.492;2022-10-16T01:39:59;22.66;57.67
65472;DHT22;52068;50.710;14.492;2022-10-16T01:42:27;22.66;57.64
65472;DHT22;52068;50.710;14.492;2022-10-16T01:44:53;22.66;57.70
65472;DHT22;52068;50.710;14.492;2022-10-16T01:47:21;22.67;57.65
65472;DHT22;52068;50.710;14.492;2022-10-16T01:49:47;22.67;57.67
65472;DHT22;52068;50.710;14.492;2022-10-16T01:52:14;22.63;57.72
65472;DHT22;52068;50.710;14.492;2022-10-16T01:54:42;22.66;57.73
65472;DHT22;52068;50.710;14.492;2022-10-16T01:57:08;22.64;57.72
65472;DHT22;52068;50.710;14.492;2022-10-16T01:59:35;22.64;57.70
65472;DHT22;52068;50.710;14.492;2022-10-16T02:02:03;22.64;57.73
65472;DHT22;52068;50.710;14.492;2022-10-16T02:04:32;22.67;57.76
65472;DHT22;52068;50.710;14.492;2022-10-16T02:06:58;22.63;57.85
65472;DHT22;52068;50.710;14.492;2022-10-16T02:09:23;22.62;57.89
65472;DHT22;52068;50.710;14.492;2022-10-16T02:11:49;22.63;57.85
65472;DHT22;52068;50.710;14.492;2022-10-16T02:14:15;22.64;57.84
65472;DHT22;52068;50.710;14.492;2022-10-16T02:16:42;22.63;57.85
65472;DHT22;52068;50.710;14.492;2022-10-16T02:19:07;22.62;57.80
65472;DHT22;52068;50.710;14.492;2022-10-16T02:21:36;22.60;57.81
65472;DHT22;52068;50.710;14.492;2022-10-16T02:26:49;22.62;57.67
65472;DHT22;52068;50.710;14.492;2022-10-16T02:29:17;22.64;57.66
65472;DHT22;52068;50.710;14.492;2022-10-16T02:31:45;22.64;57.67
65472;DHT22;52068;50.710;14.492;2022-10-16T02:34:12;22.66;57.62
65472;DHT22;52068;50.710;14.492;2022-10-16T02:36:38;22.64;57.65
65472;DHT22;52068;50.710;14.492;2022-10-16T02:39:04;22.66;57.57
65472;DHT22;52068;50.710;14.492;2022-10-16T02:41:30;22.64;57.59
65472;DHT22;52068;50.710;14.492;2022-10-16T02:43:55;22.64;57.52
65472;DHT22;52068;50.710;14.492;2022-10-16T02:46:20;22.67;57.47
65472;DHT22;52068;50.710;14.492;2022-10-16T02:48:46;22.63;57.47
65472;DHT22;52068;50.710;14.492;2022-10-16T02:51:11;22.66;57.43
65472;DHT22;52068;50.710;14.492;2022-10-16T02:53:36;22.66;57.47
65472;DHT22;52068;50.710;14.492;2022-10-16T02:56:01;22.63;57.39
65472;DHT22;52068;50.710;14.492;2022-10-16T02:58:27;22.66;57.38
65472;DHT22;52068;50.710;14.492;2022-10-16T03:00:52;22.66;57.35
65472;DHT22;52068;50.710;14.492;2022-10-16T03:03:17;22.63;57.39
65472;DHT22;52068;50.710;14.492;2022-10-16T03:05:43;22.66;57.35
65472;DHT22;52068;50.710;14.492;2022-10-16T03:08:10;22.63;57.37
65472;DHT22;52068;50.710;14.492;2022-10-16T03:10:36;22.64;57.39
65472;DHT22;52068;50.710;14.492;2022-10-16T03:13:01;22.64;57.33
65472;DHT22;52068;50.710;14.492;2022-10-16T03:15:26;22.64;57.29
65472;DHT22;52068;50.710;14.492;2022-10-16T03:17:53;22.63;57.31
65472;DHT22;52068;50.710;14.492;2022-10-16T03:20:18;22.63;57.41
65472;DHT22;52068;50.710;14.492;2022-10-16T03:22:43;22.62;57.40
65472;DHT22;52068;50.710;14.492;2022-10-16T03:25:09;22.63;57.45
65472;DHT22;52068;50.710;14.492;2022-10-16T03:27:34;22.66;57.31
65472;DHT22;52068;50.710;14.492;2022-10-16T03:29:59;22.63;57.34
65472;DHT22;52068;50.710;14.492;2022-10-16T03:32:24;22.63;57.28
65472;DHT22;52068;50.710;14.492;2022-10-16T03:34:50;22.63;57.26
65472;DHT22;52068;50.710;14.492;2022-10-16T03:37:15;22.63;57.24
65472;DHT22;52068;50.710;14.492;2022-10-16T03:39:40;22.63;57.19
65472;DHT22;52068;50.710;14.492;2022-10-16T03:42:06;22.63;57.28
65472;DHT22;52068;50.710;14.492;2022-10-16T03:44:31;22.64;57.18
65472;DHT22;52068;50.710;14.492;2022-10-16T03:46:56;22.63;57.18
65472;DHT22;52068;50.710;14.492;2022-10-16T03:49:22;22.62;57.17
65472;DHT22;52068;50.710;14.492;2022-10-16T03:51:47;22.62;57.13
65472;DHT22;52068;50.710;14.492;2022-10-16T03:54:12;22.62;57.17
65472;DHT22;52068;50.710;14.492;2022-10-16T03:56:37;22.63;57.18
65472;DHT22;52068;50.710;14.492;2022-10-16T03:59:03;22.62;57.19
65472;DHT22;52068;50.710;14.492;2022-10-16T04:01:28;22.63;57.17
65472;DHT22;52068;50.710;14.492;2022-10-16T04:03:54;22.57;57.18
65472;DHT22;52068;50.710;14.492;2022-10-16T04:06:22;22.63;57.18
65472;DHT22;52068;50.710;14.492;2022-10-16T04:08:48;22.59;57.13
65472;DHT22;52068;50.710;14.492;2022-10-16T04:11:13;22.62;57.12
65472;DHT22;52068;50.710;14.492;2022-10-16T04:13:39;22.62;57.13
65472;DHT22;52068;50.710;14.492;2022-10-16T04:16:04;22.60;57.13
65472;DHT22;52068;50.710;14.492;2022-10-16T04:18:29;22.60;57.28
65472;DHT22;52068;50.710;14.492;2022-10-16T04:20:55;22.63;57.30
65472;DHT22;52068;50.710;14.492;2022-10-16T04:23:20;22.60;57.30
65472;DHT22;52068;50.710;14.492;2022-10-16T04:25:45;22.62;57.33
65472;DHT22;52068;50.710;14.492;2022-10-16T04:28:11;22.63;57.28
65472;DHT22;52068;50.710;14.492;2022-10-16T04:30:37;22.63;57.32
65472;DHT22;52068;50.710;14.492;2022-10-16T04:33:02;22.62;57.17
65472;DHT22;52068;50.710;14.492;2022-10-16T04:35:28;22.63;57.14
65472;DHT22;52068;50.710;14.492;2022-10-16T04:37:53;22.66;57.17
65472;DHT22;52068;50.710;14.492;2022-10-16T04:40:18;22.63;57.07
65472;DHT22;52068;50.710;14.492;2022-10-16T04:42:43;22.63;57.05
65472;DHT22;52068;50.710;14.492;2022-10-16T04:45:09;22.63;57.05
65472;DHT22;52068;50.710;14.492;2022-10-16T04:47:34;22.63;56.97
65472;DHT22;52068;50.710;14.492;2022-10-16T04:50:00;22.63;56.98
65472;DHT22;52068;50.710;14.492;2022-10-16T04:52:27;22.63;56.99
65472;DHT22;52068;50.710;14.492;2022-10-16T04:54:52;22.62;56.96
65472;DHT22;52068;50.710;14.492;2022-10-16T04:57:19;22.64;56.94
65472;DHT22;52068;50.710;14.492;2022-10-16T04:59:44;22.63;56.91
65472;DHT22;52068;50.710;14.492;2022-10-16T05:02:09;22.63;56.85
65472;DHT22;52068;50.710;14.492;2022-10-16T05:04:34;22.60;56.80
65472;DHT22;52068;50.710;14.492;2022-10-16T05:07:00;22.59;56.84
65472;DHT22;52068;50.710;14.492;2022-10-16T05:09:25;22.63;56.80
65472;DHT22;52068;50.710;14.492;2022-10-16T05:11:50;22.59;56.88
65472;DHT22;52068;50.710;14.492;2022-10-16T05:14:15;22.60;56.81
65472;DHT22;52068;50.710;14.492;2022-10-16T05:16:41;22.62;56.91
65472;DHT22;52068;50.710;14.492;2022-10-16T05:19:06;22.62;56.88
65472;DHT22;52068;50.710;14.492;2022-10-16T05:21:31;22.60;56.88
65472;DHT22;52068;50.710;14.492;2022-10-16T05:23:56;22.60;56.86
65472;DHT22;52068;50.710;14.492;2022-10-16T05:26:22;22.60;56.86
65472;DHT22;52068;50.710;14.492;2022-10-16T05:28:47;22.59;56.86
65472;DHT22;52068;50.710;14.492;2022-10-16T05:31:12;22.63;56.86
65472;DHT22;52068;50.710;14.492;2022-10-16T05:33:38;22.60;56.79
65472;DHT22;52068;50.710;14.492;2022-10-16T05:36:07;22.62;56.76
65472;DHT22;52068;50.710;14.492;2022-10-16T05:38:36;22.60;56.74
65472;DHT22;52068;50.710;14.492;2022-10-16T05:41:02;22.60;56.75
65472;DHT22;52068;50.710;14.492;2022-10-16T05:43:28;22.59;56.75
65472;DHT22;52068;50.710;14.492;2022-10-16T05:45:57;22.59;56.80
65472;DHT22;52068;50.710;14.492;2022-10-16T05:48:23;22.59;57.06
65472;DHT22;52068;50.710;14.492;2022-10-16T05:50:55;22.59;56.80
65472;DHT22;52068;50.710;14.492;2022-10-16T05:53:20;22.59;56.98
65472;DHT22;52068;50.710;14.492;2022-10-16T05:55:57;22.60;57.23
65472;DHT22;52068;50.710;14.492;2022-10-16T05:58:22;22.63;56.99
65472;DHT22;52068;50.710;14.492;2022-10-16T06:00:58;22.62;56.86
65472;DHT22;52068;50.710;14.492;2022-10-16T06:03:23;22.62;56.77
65472;DHT22;52068;50.710;14.492;2022-10-16T06:05:49;22.64;56.64
65472;DHT22;52068;50.710;14.492;2022-10-16T06:08:14;22.63;56.59
65472;DHT22;52068;50.710;14.492;2022-10-16T06:10:39;22.64;56.55
65472;DHT22;52068;50.710;14.492;2022-10-16T06:13:04;22.63;56.48
65472;DHT22;52068;50.710;14.492;2022-10-16T06:15:30;22.64;56.40
65472;DHT22;52068;50.710;14.492;2022-10-16T06:17:55;22.67;56.39
65472;DHT22;52068;50.710;14.492;2022-10-16T06:20:20;22.67;56.33
65472;DHT22;52068;50.710;14.492;2022-10-16T06:22:45;22.66;56.28
65472;DHT22;52068;50.710;14.492;2022-10-16T06:25:11;22.66;56.23
65472;DHT22;52068;50.710;14.492;2022-10-16T06:27:38;22.67;56.23
65472;DHT22;52068;50.710;14.492;2022-10-16T06:30:04;22.70;56.17
65472;DHT22;52068;50.710;14.492;2022-10-16T06:32:29;22.70;56.17
65472;DHT22;52068;50.710;14.492;2022-10-16T06:34:55;22.69;56.14
65472;DHT22;52068;50.710;14.492;2022-10-16T06:37:20;22.69;56.18
65472;DHT22;52068;50.710;14.492;2022-10-16T06:39:47;22.67;56.16
65472;DHT22;52068;50.710;14.492;2022-10-16T06:42:12;22.69;56.16
65472;DHT22;52068;50.710;14.492;2022-10-16T06:44:37;22.69;56.15
65472;DHT22;52068;50.710;14.492;2022-10-16T06:47:02;22.66;56.06
65472;DHT22;52068;50.710;14.492;2022-10-16T06:49:28;22.70;56.16
65472;DHT22;52068;50.710;14.492;2022-10-16T06:51:53;22.70;56.22
65472;DHT22;52068;50.710;14.492;2022-10-16T06:54:18;22.69;56.28
65472;DHT22;52068;50.710;14.492;2022-10-16T06:56:44;22.70;56.39
65472;DHT22;52068;50.710;14.492;2022-10-16T06:59:09;22.69;56.47
65472;DHT22;52068;50.710;14.492;2022-10-16T07:01:35;22.66;56.75
65472;DHT22;52068;50.710;14.492;2022-10-16T07:04:00;22.67;56.92
65472;DHT22;52068;50.710;14.492;2022-10-16T07:06:26;22.70;57.06
65472;DHT22;52068;50.710;14.492;2022-10-16T07:08:51;22.70;57.16
65472;DHT22;52068;50.710;14.492;2022-10-16T07:11:20;22.74;57.18
65472;DHT22;52068;50.710;14.492;2022-10-16T07:13:46;22.77;57.12
65472;DHT22;52068;50.710;14.492;2022-10-16T07:16:13;22.77;57.10
65472;DHT22;52068;50.710;14.492;2022-10-16T07:18:38;22.80;57.01
65472;DHT22;52068;50.710;14.492;2022-10-16T07:23:30;22.83;56.97
65472;DHT22;52068;50.710;14.492;2022-10-16T07:25:55;22.86;56.96
65472;DHT22;52068;50.710;14.492;2022-10-16T07:28:21;22.89;56.90
65472;DHT22;52068;50.710;14.492;2022-10-16T07:30:47;22.93;56.81
65472;DHT22;52068;50.710;14.492;2022-10-16T07:33:12;22.89;56.79
65472;DHT22;52068;50.710;14.492;2022-10-16T07:35:37;22.92;56.71
65472;DHT22;52068;50.710;14.492;2022-10-16T07:38:02;22.93;56.66
65472;DHT22;52068;50.710;14.492;2022-10-16T07:40:28;22.94;56.66
65472;DHT22;52068;50.710;14.492;2022-10-16T07:42:53;23.00;56.74
65472;DHT22;52068;50.710;14.492;2022-10-16T07:45:18;23.02;56.75
65472;DHT22;52068;50.710;14.492;2022-10-16T07:47:43;23.03;56.75
65472;DHT22;52068;50.710;14.492;2022-10-16T07:50:09;23.02;56.71
65472;DHT22;52068;50.710;14.492;2022-10-16T07:52:34;23.07;56.71
65472;DHT22;52068;50.710;14.492;2022-10-16T07:54:59;23.04;56.65
65472;DHT22;52068;50.710;14.492;2022-10-16T07:57:24;23.07;56.66
65472;DHT22;52068;50.710;14.492;2022-10-16T07:59:50;23.11;56.65
65472;DHT22;52068;50.710;14.492;2022-10-16T08:02:15;23.10;56.61
65472;DHT22;52068;50.710;14.492;2022-10-16T08:04:40;23.10;56.61
65472;DHT22;52068;50.710;14.492;2022-10-16T08:07:06;23.13;56.58
65472;DHT22;52068;50.710;14.492;2022-10-16T08:09:32;23.13;56.52
65472;DHT22;52068;50.710;14.492;2022-10-16T08:11:57;23.13;56.52
65472;DHT22;52068;50.710;14.492;2022-10-16T08:14:23;23.14;56.49
65472;DHT22;52068;50.710;14.492;2022-10-16T08:16:48;23.17;56.45
65472;DHT22;52068;50.710;14.492;2022-10-16T08:19:13;23.17;56.45
65472;DHT22;52068;50.710;14.492;2022-10-16T08:21:40;23.15;56.37
65472;DHT22;52068;50.710;14.492;2022-10-16T08:24:05;23.20;56.37
65472;DHT22;52068;50.710;14.492;2022-10-16T08:26:31;23.18;56.28
65472;DHT22;52068;50.710;14.492;2022-10-16T08:28:56;23.17;56.24
65472;DHT22;52068;50.710;14.492;2022-10-16T08:31:21;23.21;56.24
65472;DHT22;52068;50.710;14.492;2022-10-16T08:33:47;23.20;56.19
65472;DHT22;52068;50.710;14.492;2022-10-16T08:36:13;23.23;56.11
65472;DHT22;52068;50.710;14.492;2022-10-16T08:38:38;23.25;56.01
65472;DHT22;52068;50.710;14.492;2022-10-16T08:43:54;23.27;55.87
65472;DHT22;52068;50.710;14.492;2022-10-16T08:49:06;23.27;56.16
65472;DHT22;52068;50.710;14.492;2022-10-16T08:51:34;23.30;56.16
65472;DHT22;52068;50.710;14.492;2022-10-16T08:56:28;23.33;56.24
65472;DHT22;52068;50.710;14.492;2022-10-16T08:58:54;23.31;56.12
65472;DHT22;52068;50.710;14.492;2022-10-16T09:01:20;23.33;56.17
65472;DHT22;52068;50.710;14.492;2022-10-16T09:06:17;23.33;56.02
65472;DHT22;52068;50.710;14.492;2022-10-16T09:09:11;23.35;55.95
65472;DHT22;52068;50.710;14.492;2022-10-16T09:11:36;23.35;55.86
65472;DHT22;52068;50.710;14.492;2022-10-16T09:16:37;23.38;55.90
65472;DHT22;52068;50.710;14.492;2022-10-16T09:19:05;23.37;56.01
65472;DHT22;52068;50.710;14.492;2022-10-16T09:21:44;23.35;56.05
65472;DHT22;52068;50.710;14.492;2022-10-16T09:26:35;23.37;56.07
65472;DHT22;52068;50.710;14.492;2022-10-16T09:29:00;23.40;56.09
65472;DHT22;52068;50.710;14.492;2022-10-16T09:31:25;23.41;56.10
65472;DHT22;52068;50.710;14.492;2022-10-16T09:34:00;23.41;56.09
65472;DHT22;52068;50.710;14.492;2022-10-16T09:36:39;23.44;56.01
65472;DHT22;52068;50.710;14.492;2022-10-16T09:39:07;23.41;56.07
65472;DHT22;52068;50.710;14.492;2022-10-16T09:41:34;23.44;56.05
65472;DHT22;52068;50.710;14.492;2022-10-16T09:44:00;23.41;56.04
65472;DHT22;52068;50.710;14.492;2022-10-16T09:48:56;23.45;56.05
65472;DHT22;52068;50.710;14.492;2022-10-16T09:51:22;23.48;56.03
65472;DHT22;52068;50.710;14.492;2022-10-16T09:53:48;23.47;55.99
65472;DHT22;52068;50.710;14.492;2022-10-16T09:56:22;23.48;55.97
65472;DHT22;52068;50.710;14.492;2022-10-16T09:58:51;23.48;55.95
65472;DHT22;52068;50.710;14.492;2022-10-16T10:01:17;23.50;55.94
65472;DHT22;52068;50.710;14.492;2022-10-16T10:03:44;23.50;55.91
65472;DHT22;52068;50.710;14.492;2022-10-16T10:06:17;23.52;55.95
65472;DHT22;52068;50.710;14.492;2022-10-16T10:09:44;23.52;55.93
65472;DHT22;52068;50.710;14.492;2022-10-16T10:11:39;23.52;55.90
65472;DHT22;52068;50.710;14.492;2022-10-16T10:14:05;23.55;55.91
65472;DHT22;52068;50.710;14.492;2022-10-16T10:16:31;23.54;55.85
65472;DHT22;52068;50.710;14.492;2022-10-16T10:19:00;23.55;55.80
65472;DHT22;52068;50.710;14.492;2022-10-16T10:21:25;23.58;55.74
65472;DHT22;52068;50.710;14.492;2022-10-16T10:23:57;23.58;55.71
65472;DHT22;52068;50.710;14.492;2022-10-16T10:26:23;23.58;55.64
65472;DHT22;52068;50.710;14.492;2022-10-16T10:34:44;23.61;55.50
65472;DHT22;52068;50.710;14.492;2022-10-16T10:36:59;23.59;55.42
65472;DHT22;52068;50.710;14.492;2022-10-16T10:39:39;23.61;55.43
65472;DHT22;52068;50.710;14.492;2022-10-16T10:42:31;23.62;55.43
65472;DHT22;52068;50.710;14.492;2022-10-16T10:45:44;23.59;55.40
65472;DHT22;52068;50.710;14.492;2022-10-16T10:48:05;23.61;55.41
65472;DHT22;52068;50.710;14.492;2022-10-16T10:53:10;23.62;55.45
65472;DHT22;52068;50.710;14.492;2022-10-16T10:55:48;23.59;55.43
65472;DHT22;52068;50.710;14.492;2022-10-16T11:00:53;23.59;55.45
65472;DHT22;52068;50.710;14.492;2022-10-16T11:03:27;23.57;55.48
65472;DHT22;52068;50.710;14.492;2022-10-16T11:05:58;23.55;55.56
65472;DHT22;52068;50.710;14.492;2022-10-16T11:08:35;23.55;55.56
65472;DHT22;52068;50.710;14.492;2022-10-16T11:11:02;23.55;55.65
65472;DHT22;52068;50.710;14.492;2022-10-16T11:15:55;23.48;55.65
65472;DHT22;52068;50.710;14.492;2022-10-16T11:18:28;23.48;55.63
65472;DHT22;52068;50.710;14.492;2022-10-16T11:20:57;23.50;55.69
65472;DHT22;52068;50.710;14.492;2022-10-16T11:25:50;23.44;55.92
65472;DHT22;52068;50.710;14.492;2022-10-16T11:30:49;23.44;55.89
65472;DHT22;52068;50.710;14.492;2022-10-16T11:38:21;23.43;55.75
65472;DHT22;52068;50.710;14.492;2022-10-16T11:40:50;23.41;55.74
65472;DHT22;52068;50.710;14.492;2022-10-16T11:43:39;23.43;55.78
65472;DHT22;52068;50.710;14.492;2022-10-16T11:46:11;23.43;55.78
65472;DHT22;52068;50.710;14.492;2022-10-16T11:48:39;23.43;55.78
65472;DHT22;52068;50.710;14.492;2022-10-16T11:51:07;23.44;55.84
65472;DHT22;52068;50.710;14.492;2022-10-16T11:56:03;23.41;55.84
65472;DHT22;52068;50.710;14.492;2022-10-16T11:58:40;23.41;55.89
65472;DHT22;52068;50.710;14.492;2022-10-16T12:08:45;23.44;56.19
65472;DHT22;52068;50.710;14.492;2022-10-16T12:11:22;23.43;56.20
65472;DHT22;52068;50.710;14.492;2022-10-16T12:13:47;23.44;56.26
65472;DHT22;52068;50.710;14.492;2022-10-16T12:18:42;23.43;56.47
65472;DHT22;52068;50.710;14.492;2022-10-16T12:21:08;23.43;56.52
65472;DHT22;52068;50.710;14.492;2022-10-16T12:23:36;23.41;56.55
65472;DHT22;52068;50.710;14.492;2022-10-16T12:26:02;23.44;56.61
65472;DHT22;52068;50.710;14.492;2022-10-16T12:28:36;23.44;56.61
65472;DHT22;52068;50.710;14.492;2022-10-16T12:31:04;23.44;56.68
65472;DHT22;52068;50.710;14.492;2022-10-16T12:33:32;23.45;56.83
65472;DHT22;52068;50.710;14.492;2022-10-16T12:35:58;23.45;56.95
65472;DHT22;52068;50.710;14.492;2022-10-16T12:38:28;23.48;56.90
65472;DHT22;52068;50.710;14.492;2022-10-16T12:41:02;23.48;56.67
65472;DHT22;52068;50.710;14.492;2022-10-16T12:46:39;23.52;56.72
65472;DHT22;52068;50.710;14.492;2022-10-16T12:48:45;23.57;56.72
65472;DHT22;52068;50.710;14.492;2022-10-16T12:51:25;23.57;56.69
65472;DHT22;52068;50.710;14.492;2022-10-16T12:56:24;23.58;56.57
65472;DHT22;52068;50.710;14.492;2022-10-16T12:59:28;23.58;56.52
65472;DHT22;52068;50.710;14.492;2022-10-16T13:09:32;23.54;56.66
65472;DHT22;52068;50.710;14.492;2022-10-16T13:17:07;23.57;56.59
65472;DHT22;52068;50.710;14.492;2022-10-16T13:22:05;23.59;56.52
65472;DHT22;52068;50.710;14.492;2022-10-16T13:29:40;23.57;56.63
65472;DHT22;52068;50.710;14.492;2022-10-16T13:32:07;23.57;56.61
65472;DHT22;52068;50.710;14.492;2022-10-16T13:34:41;23.59;56.70
65472;DHT22;52068;50.710;14.492;2022-10-16T13:37:15;23.59;56.73
65472;DHT22;52068;50.710;14.492;2022-10-16T13:39:41;23.57;56.75
65472;DHT22;52068;50.710;14.492;2022-10-16T13:42:07;23.55;56.80
65472;DHT22;52068;50.710;14.492;2022-10-16T13:44:48;23.58;56.77
65472;DHT22;52068;50.710;14.492;2022-10-16T13:47:18;23.55;56.81
65472;DHT22;52068;50.710;14.492;2022-10-16T13:49:44;23.55;56.92
65472;DHT22;52068;50.710;14.492;2022-10-16T13:52:19;23.55;56.90
65472;DHT22;52068;50.710;14.492;2022-10-16T13:54:45;23.52;56.96
65472;DHT22;52068;50.710;14.492;2022-10-16T13:57:12;23.54;56.85
65472;DHT22;52068;50.710;14.492;2022-10-16T13:59:38;23.58;56.74
65472;DHT22;52068;50.710;14.492;2022-10-16T14:04:39;23.61;56.82
65472;DHT22;52068;50.710;14.492;2022-10-16T14:07:04;23.61;56.85
65472;DHT22;52068;50.710;14.492;2022-10-16T14:09:30;23.64;56.76
65472;DHT22;52068;50.710;14.492;2022-10-16T14:11:57;23.65;56.86
65472;DHT22;52068;50.710;14.492;2022-10-16T14:14:22;23.68;56.77
65472;DHT22;52068;50.710;14.492;2022-10-16T14:16:48;23.68;57.04
65472;DHT22;52068;50.710;14.492;2022-10-16T14:21:45;23.75;57.13
65472;DHT22;52068;50.710;14.492;2022-10-16T14:24:11;23.75;57.29
65472;DHT22;52068;50.710;14.492;2022-10-16T14:26:40;23.81;57.23
65472;DHT22;52068;50.710;14.492;2022-10-16T14:29:10;23.81;57.22
65472;DHT22;52068;50.710;14.492;2022-10-16T14:31:36;23.82;57.16
65472;DHT22;52068;50.710;14.492;2022-10-16T14:34:02;23.85;57.15
65472;DHT22;52068;50.710;14.492;2022-10-16T14:36:27;23.88;57.12
65472;DHT22;52068;50.710;14.492;2022-10-16T14:41:21;23.92;56.93
65472;DHT22;52068;50.710;14.492;2022-10-16T14:43:50;23.93;56.93
65472;DHT22;52068;50.710;14.492;2022-10-16T14:46:19;23.92;56.91
65472;DHT22;52068;50.710;14.492;2022-10-16T14:48:47;23.93;56.93
65472;DHT22;52068;50.710;14.492;2022-10-16T14:51:17;23.95;56.89
65472;DHT22;52068;50.710;14.492;2022-10-16T14:53:42;23.93;56.88
65472;DHT22;52068;50.710;14.492;2022-10-16T14:56:21;23.95;56.82
65472;DHT22;52068;50.710;14.492;2022-10-16T14:58:47;23.95;56.95
65472;DHT22;52068;50.710;14.492;2022-10-16T15:01:14;23.95;57.02
65472;DHT22;52068;50.710;14.492;2022-10-16T15:03:39;23.96;56.88
65472;DHT22;52068;50.710;14.492;2022-10-16T15:06:09;23.98;56.85
65472;DHT22;52068;50.710;14.492;2022-10-16T15:08:35;23.96;56.82
65472;DHT22;52068;50.710;14.492;2022-10-16T15:11:01;23.96;56.74
65472;DHT22;52068;50.710;14.492;2022-10-16T15:13:26;23.99;56.79
65472;DHT22;52068;50.710;14.492;2022-10-16T15:15:51;24.01;56.71
65472;DHT22;52068;50.710;14.492;2022-10-16T15:18:17;23.99;56.72
65472;DHT22;52068;50.710;14.492;2022-10-16T15:20:47;24.05;56.71
65472;DHT22;52068;50.710;14.492;2022-10-16T15:23:13;24.05;56.78
65472;DHT22;52068;50.710;14.492;2022-10-16T15:28:11;24.03;56.80
65472;DHT22;52068;50.710;14.492;2022-10-16T15:30:36;24.06;56.83
65472;DHT22;52068;50.710;14.492;2022-10-16T15:33:02;24.08;56.83
65472;DHT22;52068;50.710;14.492;2022-10-16T15:35:28;24.10;56.84
65472;DHT22;52068;50.710;14.492;2022-10-16T15:37:53;24.08;56.88
65472;DHT22;52068;50.710;14.492;2022-10-16T15:40:19;24.09;56.89
65472;DHT22;52068;50.710;14.492;2022-10-16T15:42:45;24.09;56.87
65472;DHT22;52068;50.710;14.492;2022-10-16T15:45:10;24.10;56.89
65472;DHT22;52068;50.710;14.492;2022-10-16T15:47:36;24.10;56.81
65472;DHT22;52068;50.710;14.492;2022-10-16T15:50:02;24.10;56.83
65472;DHT22;52068;50.710;14.492;2022-10-16T15:52:27;24.09;56.75
65472;DHT22;52068;50.710;14.492;2022-10-16T15:54:54;24.09;56.86
65472;DHT22;52068;50.710;14.492;2022-10-16T15:57:19;24.06;56.92
65472;DHT22;52068;50.710;14.492;2022-10-16T15:59:44;24.08;57.02
65472;DHT22;52068;50.710;14.492;2022-10-16T16:02:09;24.08;57.05
65472;DHT22;52068;50.710;14.492;2022-10-16T16:04:35;24.03;57.10
65472;DHT22;52068;50.710;14.492;2022-10-16T16:07:00;24.05;57.12
65472;DHT22;52068;50.710;14.492;2022-10-16T16:09:28;24.06;57.10
65472;DHT22;52068;50.710;14.492;2022-10-16T16:11:53;24.05;57.10
65472;DHT22;52068;50.710;14.492;2022-10-16T16:14:19;24.05;57.14
65472;DHT22;52068;50.710;14.492;2022-10-16T16:16:44;24.03;57.06
65472;DHT22;52068;50.710;14.492;2022-10-16T16:19:09;24.03;57.08
65472;DHT22;52068;50.710;14.492;2022-10-16T16:21:34;24.02;57.10
65472;DHT22;52068;50.710;14.492;2022-10-16T16:24:00;24.05;57.08
65472;DHT22;52068;50.710;14.492;2022-10-16T16:26:26;24.02;57.11
65472;DHT22;52068;50.710;14.492;2022-10-16T16:28:52;24.02;57.15
65472;DHT22;52068;50.710;14.492;2022-10-16T16:31:18;24.02;57.24
65472;DHT22;52068;50.710;14.492;2022-10-16T16:33:43;24.02;57.27
65472;DHT22;52068;50.710;14.492;2022-10-16T16:36:09;24.01;57.27
65472;DHT22;52068;50.710;14.492;2022-10-16T16:38:34;24.01;57.24
65472;DHT22;52068;50.710;14.492;2022-10-16T16:40:59;23.98;57.28
65472;DHT22;52068;50.710;14.492;2022-10-16T16:43:25;23.99;57.22
65472;DHT22;52068;50.710;14.492;2022-10-16T16:45:51;24.01;57.27
65472;DHT22;52068;50.710;14.492;2022-10-16T16:48:17;23.99;57.26
65472;DHT22;52068;50.710;14.492;2022-10-16T16:50:42;23.96;57.29
65472;DHT22;52068;50.710;14.492;2022-10-16T16:53:07;23.96;57.36
65472;DHT22;52068;50.710;14.492;2022-10-16T16:55:32;23.90;57.33
65472;DHT22;52068;50.710;14.492;2022-10-16T16:57:58;23.93;57.36